Muscatine, IA

2:39 AM CDT on March 29, 2017 (GMT -0500)
Muscatine Municipal

Weather History for KMUT - January, 2014

Change the Weather History Date:

Sunday, January 5, 2014

  Actual Average Record
Temperature  
Mean Temperature 6 °F -  
Max Temperature 19 °F 29 °F 60 °F (2012)
Min Temperature -9 °F 11 °F -13 °F (1959)
Degree Days  
Heating Degree Days 59    
Moisture  
Dew Point -2 °F    
Average Humidity 62    
Maximum Humidity 74    
Minimum Humidity 50    
Precipitation  
Precipitation 0.00 in - - ()
Sea Level Pressure  
Sea Level Pressure 30.20 in    
Wind  
Wind Speed 17 mph (NNW)    
Max Wind Speed 31 mph    
Max Gust Speed 41 mph    
Visibility 9 miles    
Events Rain , Snow    
Averages and records for this station are not official NWS values.
T = Trace of Precipitation, MM = Missing Value Source: NWS Daily Summary

Daily Weather History Graph

Daily Weather History Graph

Search for Another Location

Airport or City:

Trip Planner

Search our weather history database for the weather conditions in past years. The results will help you decide how hot, cold, wet, or windy it might be!

Date:

Astronomy

Jan. 05, 2014 Rise Set
Actual Time 7:30 AM CST 4:49 PM CST
Civil Twilight 6:59 AM CST 5:20 PM CST
Nautical Twilight 6:25 AM CST 5:55 PM CST
Astronomical Twilight 5:51 AM CST 6:28 PM CST
Moon 10:08 AM CST (1/5) 10:21 PM CST (1/5)
Length of Visible Light 10h 20m
Length of Day
9h 18m
Waxing Crescent, 25% of the Moon is Illuminated
Jan 5
Waxing Crescent
Jan 7
First Quarter
Jan 15
Full
Jan 23
Last Quarter
Jan 30
New

Hourly Weather History & Observations

Time (CST) Temp. Windchill Dew Point Humidity Pressure Visibility Wind Dir Wind Speed Gust Speed Precip Events Conditions
12:15 AM 19.4 °F 7.2 °F 12.2 °F 74% 30.07 in 9.0 mi North 11.5 mph - N/A Snow Light Snow
12:35 AM 19.4 °F 6.6 °F 12.2 °F 74% 30.07 in 9.0 mi North 12.7 mph - N/A   Overcast
12:55 AM 19.4 °F 5.5 °F 10.4 °F 68% 30.08 in 10.0 mi North 15.0 mph - N/A   Overcast
1:15 AM 19.4 °F 6.0 °F 10.4 °F 68% 30.09 in 10.0 mi North 13.8 mph - N/A   Overcast
1:35 AM 19.4 °F 5.5 °F 12.2 °F 74% 30.10 in 7.0 mi North 15.0 mph - N/A Snow Light Snow
1:55 AM 19.4 °F 6.0 °F 12.2 °F 74% 30.11 in 3.0 mi North 13.8 mph - N/A Snow Light Snow
2:15 AM 19.4 °F 5.0 °F 10.4 °F 68% 30.11 in 5.0 mi North 16.1 mph - N/A Snow Light Snow
2:35 AM 17.6 °F 3.7 °F 10.4 °F 73% 30.10 in 2.5 mi North 13.8 mph 21.9 mph N/A Rain Light Freezing Rain
2:55 AM 17.6 °F 2.7 °F 10.4 °F 73% 30.11 in 3.0 mi North 16.1 mph - N/A Rain Light Freezing Rain
3:15 AM 17.6 °F 3.2 °F 8.6 °F 68% 30.10 in 10.0 mi North 15.0 mph - N/A   Overcast
3:35 AM 17.6 °F 2.7 °F 8.6 °F 68% 30.10 in 10.0 mi North 16.1 mph - N/A   Overcast
3:55 AM 17.6 °F 2.7 °F 8.6 °F 68% 30.09 in 10.0 mi North 16.1 mph - N/A   Overcast
4:15 AM 17.6 °F 3.2 °F 8.6 °F 68% 30.08 in 10.0 mi North 15.0 mph 24.2 mph N/A   Overcast
4:35 AM 17.6 °F 1.7 °F 8.6 °F 68% 30.09 in 10.0 mi North 18.4 mph - N/A   Overcast
4:55 AM 15.8 °F 0.3 °F 6.8 °F 68% 30.10 in 10.0 mi North 16.1 mph 24.2 mph N/A   Overcast
5:15 AM 15.8 °F 0.3 °F 6.8 °F 68% 30.12 in 10.0 mi North 16.1 mph 21.9 mph N/A   Overcast
5:35 AM 15.8 °F 0.3 °F 6.8 °F 68% 30.12 in 10.0 mi North 16.1 mph 23.0 mph N/A   Overcast
5:55 AM 15.8 °F 0.9 °F 5.0 °F 62% 30.12 in 10.0 mi North 15.0 mph 20.7 mph N/A   Overcast
6:15 AM 15.8 °F 0.3 °F 5.0 °F 62% 30.12 in 10.0 mi North 16.1 mph - N/A   Overcast
6:35 AM 15.8 °F -0.6 °F 5.0 °F 62% 30.11 in 10.0 mi North 18.4 mph 26.5 mph N/A   Overcast
6:55 AM 14.0 °F -2.0 °F 5.0 °F 67% 30.12 in 10.0 mi North 16.1 mph - N/A   Overcast
7:15 AM 14.0 °F -0.2 °F 3.2 °F 62% 30.13 in 10.0 mi North 12.7 mph 21.9 mph N/A   Overcast
7:35 AM 14.0 °F -2.0 °F 3.2 °F 62% 30.15 in 10.0 mi North 16.1 mph - N/A   Overcast
7:55 AM 14.0 °F -2.0 °F 5.0 °F 67% 30.15 in 10.0 mi North 16.1 mph - N/A   Overcast
8:15 AM 12.2 °F -4.8 °F 3.2 °F 67% 30.14 in 10.0 mi North 17.3 mph 26.5 mph N/A   Overcast
8:35 AM 12.2 °F -4.3 °F 3.2 °F 67% 30.17 in 9.0 mi North 16.1 mph 23.0 mph N/A   Overcast
8:55 AM 12.2 °F -4.8 °F 3.2 °F 67% 30.18 in 10.0 mi NNW 17.3 mph - N/A   Overcast
9:15 AM 12.2 °F -4.8 °F 3.2 °F 67% 30.18 in 10.0 mi North 17.3 mph - N/A   Overcast
9:35 AM 12.2 °F -4.8 °F 3.2 °F 67% 30.18 in 10.0 mi NNW 17.3 mph 24.2 mph N/A   Overcast
9:55 AM 10.4 °F -8.2 °F 1.4 °F 67% 30.19 in 10.0 mi NNW 19.6 mph - N/A   Mostly Cloudy
10:15 AM 10.4 °F -8.2 °F 1.4 °F 67% 30.18 in 10.0 mi NNW 19.6 mph 25.3 mph N/A   Mostly Cloudy
10:35 AM 10.4 °F -7.7 °F 1.4 °F 67% 30.17 in 10.0 mi NNW 18.4 mph 24.2 mph N/A   Mostly Cloudy
10:55 AM 10.4 °F -8.2 °F -0.4 °F 62% 30.18 in 10.0 mi NNW 19.6 mph - N/A   Mostly Cloudy
11:15 AM 10.4 °F -7.7 °F -0.4 °F 62% 30.17 in 10.0 mi NNW 18.4 mph - N/A   Mostly Cloudy
11:35 AM 10.4 °F -7.7 °F -0.4 °F 62% 30.18 in 10.0 mi NNW 18.4 mph 28.8 mph N/A   Mostly Cloudy
11:55 AM 10.4 °F -7.7 °F -2.2 °F 57% 30.16 in 10.0 mi North 18.4 mph 27.6 mph N/A   Scattered Clouds
12:15 PM 8.6 °F -10.0 °F -2.2 °F 62% 30.16 in 10.0 mi NNW 18.4 mph 26.5 mph N/A   Partly Cloudy
12:35 PM 8.6 °F -11.0 °F -2.2 °F 62% 30.16 in 10.0 mi NNW 20.7 mph - N/A   Scattered Clouds
12:55 PM 8.6 °F -10.0 °F -4.0 °F 57% 30.16 in 10.0 mi NNW 18.4 mph 26.5 mph N/A   Mostly Cloudy
1:15 PM 8.6 °F -10.0 °F -4.0 °F 57% 30.17 in 10.0 mi NNW 18.4 mph 26.5 mph N/A   Mostly Cloudy
1:35 PM 8.6 °F -11.0 °F -4.0 °F 57% 30.17 in 10.0 mi NNW 20.7 mph 27.6 mph N/A   Scattered Clouds
1:55 PM 6.8 °F -13.8 °F -4.0 °F 61% 30.17 in 10.0 mi NNW 21.9 mph 27.6 mph N/A   Partly Cloudy
2:15 PM 6.8 °F -14.7 °F -4.0 °F 61% 30.18 in 8.0 mi NW 24.2 mph - N/A   Partly Cloudy
2:35 PM 6.8 °F -14.3 °F -5.8 °F 56% 30.20 in 10.0 mi NNW 23.0 mph 28.8 mph N/A   Clear
2:55 PM 5.0 °F -15.7 °F -5.8 °F 61% 30.21 in 10.0 mi NNW 20.7 mph 27.6 mph N/A   Clear
3:15 PM 5.0 °F -14.2 °F -7.6 °F 56% 30.23 in 10.0 mi NNW 17.3 mph 26.5 mph N/A   Clear
3:35 PM 5.0 °F -14.7 °F -7.6 °F 56% 30.24 in 10.0 mi NNW 18.4 mph - N/A   Clear
3:55 PM 5.0 °F -15.7 °F -7.6 °F 56% 30.25 in 10.0 mi NW 20.7 mph 26.5 mph N/A   Clear
4:15 PM 5.0 °F -13.0 °F -9.4 °F 52% 30.26 in 10.0 mi NNW 15.0 mph 26.5 mph N/A   Clear
4:35 PM 5.0 °F -14.7 °F -9.4 °F 52% 30.26 in 10.0 mi NW 18.4 mph 25.3 mph N/A   Mostly Cloudy
4:55 PM 3.2 °F -15.3 °F -9.4 °F 56% 30.27 in 10.0 mi NNW 15.0 mph 27.6 mph N/A   Overcast
5:15 PM 3.2 °F -17.6 °F -9.4 °F 56% 30.28 in 10.0 mi NW 19.6 mph 25.3 mph N/A   Overcast
5:35 PM 3.2 °F -17.6 °F -7.6 °F 61% 30.28 in 10.0 mi NW 19.6 mph - N/A   Overcast
5:55 PM 3.2 °F -15.9 °F -9.4 °F 56% 30.29 in 10.0 mi NW 16.1 mph 24.2 mph N/A   Overcast
6:15 PM 3.2 °F -17.1 °F -9.4 °F 56% 30.29 in 10.0 mi NW 18.4 mph 27.6 mph N/A   Overcast
6:35 PM 1.4 °F -21.4 °F -9.4 °F 61% 30.30 in 10.0 mi NW 23.0 mph 33.4 mph N/A   Mostly Cloudy
6:55 PM 1.4 °F -20.5 °F -9.4 °F 61% 30.31 in 10.0 mi NW 20.7 mph 28.8 mph N/A   Partly Cloudy
7:15 PM 1.4 °F -21.9 °F -9.4 °F 61% 30.31 in 8.0 mi NW 24.2 mph 34.5 mph N/A   Partly Cloudy
7:35 PM 1.4 °F -21.4 °F -9.4 °F 61% 30.31 in 8.0 mi NW 23.0 mph 34.5 mph N/A   Mostly Cloudy
7:55 PM -0.4 °F -23.8 °F -9.4 °F 66% 30.31 in 9.0 mi NW 23.0 mph 32.2 mph N/A   Overcast
8:15 PM -0.4 °F -24.7 °F -11.2 °F 60% 30.32 in 7.0 mi NW 25.3 mph 36.8 mph N/A   Mostly Cloudy
8:35 PM -0.4 °F -24.3 °F -13.0 °F 55% 30.32 in 10.0 mi NW 24.2 mph 33.4 mph N/A   Partly Cloudy
8:55 PM -2.2 °F -27.6 °F -14.8 °F 55% 30.32 in 9.0 mi NW 26.5 mph - N/A   Clear
9:15 PM -2.2 °F -25.2 °F -16.6 °F 50% 30.32 in 10.0 mi NW 20.7 mph 28.8 mph N/A   Clear
9:35 PM -4.0 °F -27.6 °F -16.6 °F 55% 30.33 in 10.0 mi NW 20.7 mph 32.2 mph N/A   Clear
9:55 PM -4.0 °F -27.6 °F -16.6 °F 55% 30.33 in 9.0 mi NW 20.7 mph 31.1 mph N/A   Clear
10:15 PM -5.8 °F -32.9 °F -18.4 °F 55% 30.34 in 5.0 mi NW 27.6 mph 41.4 mph N/A   Haze
10:35 PM -5.8 °F -34.1 °F -20.2 °F 50% 30.34 in 4.0 mi NW 31.1 mph 39.1 mph N/A   Haze
10:55 PM -7.6 °F -34.8 °F -20.2 °F 54% 30.34 in 8.0 mi NW 26.5 mph 35.7 mph N/A   Clear
11:15 PM -7.6 °F -33.9 °F -20.2 °F 54% 30.34 in 10.0 mi NW 24.2 mph 33.4 mph N/A   Scattered Clouds
11:35 PM -7.6 °F -33.4 °F -20.2 °F 54% 30.34 in 10.0 mi NW 23.0 mph 31.1 mph N/A   Overcast
11:55 PM -9.4 °F -37.7 °F -20.2 °F 59% 30.35 in 10.0 mi NW 27.6 mph 34.5 mph N/A   Scattered Clouds